createdAt,value
2018-04-17T00:00:06.523Z,62.88
2018-04-17T00:02:34.804Z,62.64
2018-04-17T00:05:03.103Z,62.54
2018-04-17T00:07:31.371Z,62.33
2018-04-17T00:09:59.700Z,62.47
2018-04-17T00:12:27.998Z,62.59
2018-04-17T00:14:56.281Z,62.65
2018-04-17T00:17:24.606Z,62.46
2018-04-17T00:19:52.940Z,62.67
2018-04-17T00:22:21.194Z,62.84
2018-04-17T00:24:49.507Z,63.13
2018-04-17T00:27:17.767Z,63.14
2018-04-17T00:29:46.123Z,63.20
2018-04-17T00:32:14.399Z,63.23
2018-04-17T00:34:42.847Z,63.28
2018-04-17T00:37:11.090Z,63.91
2018-04-17T00:39:39.373Z,64.05
2018-04-17T00:42:07.652Z,64.18
2018-04-17T00:44:36.154Z,64.15
2018-04-17T00:47:05.027Z,64.06
2018-04-17T00:49:33.316Z,64.71
2018-04-17T00:52:01.592Z,65.19
2018-04-17T00:54:29.891Z,64.74
2018-04-17T00:56:58.193Z,65.10
2018-04-17T00:59:26.458Z,65.58
2018-04-17T01:01:54.754Z,66.02
2018-04-17T01:04:23.053Z,65.58
2018-04-17T01:06:51.754Z,65.43
2018-04-17T01:09:20.014Z,65.28
2018-04-17T01:11:48.323Z,65.21
2018-04-17T01:14:16.600Z,65.29
2018-04-17T01:16:44.927Z,64.99
2018-04-17T01:19:13.194Z,65.24
2018-04-17T01:21:41.484Z,65.32
2018-04-17T01:24:09.742Z,65.33
2018-04-17T01:26:38.035Z,65.49
2018-04-17T01:29:06.306Z,65.59
2018-04-17T01:31:34.610Z,65.59
2018-04-17T01:34:02.878Z,66.19
2018-04-17T01:36:31.264Z,66.43
2018-04-17T01:38:59.573Z,66.48
2018-04-17T01:41:27.865Z,66.26
2018-04-17T01:43:56.173Z,66.21
2018-04-17T01:46:24.475Z,65.94
2018-04-17T01:48:52.755Z,65.67
2018-04-17T01:51:21.193Z,65.50
2018-04-17T01:53:49.447Z,65.24
2018-04-17T01:56:17.734Z,65.69
2018-04-17T01:58:46.269Z,65.51
2018-04-17T02:01:14.559Z,66.09
2018-04-17T02:03:42.856Z,66.19
2018-04-17T02:06:11.149Z,66.52
2018-04-17T02:08:39.443Z,66.84
2018-04-17T02:11:07.718Z,66.75
2018-04-17T02:13:36.051Z,66.89
2018-04-17T02:16:04.355Z,67.10
2018-04-17T02:18:32.697Z,67.03
2018-04-17T02:21:01.166Z,67.10
2018-04-17T02:23:29.466Z,67.24
2018-04-17T02:25:58.926Z,67.18
2018-04-17T02:28:27.231Z,66.44
2018-04-17T02:30:55.525Z,66.68
2018-04-17T02:33:23.813Z,66.94
2018-04-17T02:35:52.083Z,66.78
2018-04-17T02:38:20.435Z,67.13
2018-04-17T02:40:48.716Z,67.25
2018-04-17T02:43:17.022Z,67.39
2018-04-17T02:45:45.317Z,67.19
2018-04-17T02:48:13.583Z,67.82
2018-04-17T02:50:41.864Z,67.72
2018-04-17T02:55:44.770Z,67.51
2018-04-17T02:58:13.613Z,67.50
2018-04-17T03:00:41.913Z,67.48
2018-04-17T03:03:10.189Z,67.94
2018-04-17T03:05:38.478Z,67.58
2018-04-17T03:08:06.746Z,67.30
2018-04-17T03:10:35.055Z,67.57
2018-04-17T03:13:04.222Z,67.71
2018-04-17T03:15:32.529Z,67.47
2018-04-17T03:18:00.801Z,67.75
2018-04-17T03:20:29.090Z,68.25
2018-04-17T03:22:57.427Z,68.33
2018-04-17T03:25:25.833Z,68.29
2018-04-17T03:27:54.075Z,68.15
2018-04-17T03:30:22.358Z,68.87
2018-04-17T03:32:50.655Z,69.09
2018-04-17T03:35:19.212Z,68.94
2018-04-17T03:37:47.497Z,68.77
2018-04-17T03:40:16.581Z,68.31
2018-04-17T03:42:44.957Z,68.25
2018-04-17T03:45:13.242Z,68.31
2018-04-17T03:47:41.514Z,68.93
2018-04-17T03:50:10.102Z,69.75
2018-04-17T03:52:38.451Z,69.81
2018-04-17T03:55:06.727Z,70.38
2018-04-17T03:57:35.028Z,70.31
2018-04-17T04:00:03.308Z,69.67
2018-04-17T04:02:31.590Z,69.42
2018-04-17T04:04:59.861Z,69.07
2018-04-17T04:07:28.158Z,68.97
2018-04-17T04:09:56.422Z,68.80
2018-04-17T04:12:24.705Z,69.10
2018-04-17T04:14:52.963Z,68.96
2018-04-17T04:17:32.992Z,69.08
2018-04-17T04:20:13.037Z,69.05
2018-04-17T04:22:53.086Z,68.89
2018-04-17T04:25:38.673Z,68.54
2018-04-17T04:28:07.905Z,68.45
2018-04-17T04:30:36.284Z,68.51
2018-04-17T04:33:05.381Z,68.76
2018-04-17T04:35:33.647Z,68.48
2018-04-17T04:38:01.937Z,68.83
2018-04-17T04:40:30.243Z,68.97
2018-04-17T04:42:58.511Z,69.02
2018-04-17T04:45:27.661Z,69.33
2018-04-17T04:47:55.939Z,69.17
2018-04-17T04:50:24.220Z,68.89
2018-04-17T04:52:52.618Z,68.69
2018-04-17T04:55:20.998Z,68.73
2018-04-17T04:57:49.269Z,68.40
2018-04-17T05:00:17.556Z,68.76
2018-04-17T05:02:45.834Z,68.82
2018-04-17T05:05:14.151Z,69.15
2018-04-17T05:07:42.803Z,69.07
2018-04-17T05:10:11.289Z,69.34
2018-04-17T05:12:39.993Z,68.97
2018-04-17T05:15:08.336Z,69.74
2018-04-17T05:17:36.616Z,70.01
2018-04-17T05:20:05.535Z,70.15
2018-04-17T05:22:33.783Z,69.52
2018-04-17T05:25:02.172Z,69.61
2018-04-17T05:27:30.439Z,69.38
2018-04-17T05:29:58.743Z,69.18
2018-04-17T05:32:27.063Z,69.03
2018-04-17T05:34:55.476Z,68.92
2018-04-17T05:37:23.799Z,68.47
2018-04-17T05:39:52.054Z,68.33
2018-04-17T05:42:20.442Z,68.43
2018-04-17T05:44:48.699Z,68.54
2018-04-17T05:47:17.014Z,68.51
2018-04-17T05:49:45.273Z,68.60
2018-04-17T05:52:13.591Z,68.44
2018-04-17T05:54:42.007Z,68.60
2018-04-17T05:57:10.346Z,67.88
2018-04-17T05:59:38.622Z,68.13
2018-04-17T06:02:06.969Z,67.67
2018-04-17T06:04:35.646Z,68.01
2018-04-17T06:07:03.925Z,67.11
2018-04-17T06:09:32.305Z,67.39
2018-04-17T06:12:00.608Z,68.29
2018-04-17T06:14:28.862Z,68.71
2018-04-17T06:16:57.171Z,68.34
2018-04-17T06:19:25.704Z,68.27
2018-04-17T06:21:53.990Z,68.47
2018-04-17T06:24:22.626Z,68.01
2018-04-17T06:26:50.895Z,67.90
2018-04-17T06:29:19.200Z,67.60
2018-04-17T06:31:47.447Z,67.39
2018-04-17T06:34:15.753Z,67.59
2018-04-17T06:36:44.029Z,67.65
2018-04-17T06:39:12.357Z,67.12
2018-04-17T06:41:40.673Z,67.07
2018-04-17T06:44:09.031Z,66.77
2018-04-17T06:46:37.359Z,66.04
2018-04-17T06:49:06.176Z,65.63
2018-04-17T06:51:34.513Z,65.34
2018-04-17T06:54:02.857Z,64.87
2018-04-17T06:56:31.459Z,64.23
2018-04-17T06:58:59.773Z,63.64
2018-04-17T07:01:28.041Z,63.04
2018-04-17T07:03:56.363Z,62.91
2018-04-17T07:06:24.622Z,62.49
2018-04-17T07:08:52.986Z,62.28
2018-04-17T07:11:21.287Z,62.11
2018-04-17T07:13:49.670Z,61.28
2018-04-17T07:16:18.739Z,60.73
2018-04-17T07:18:47.046Z,60.52
2018-04-17T07:21:15.379Z,60.41
2018-04-17T07:23:43.716Z,60.13
2018-04-17T07:26:11.963Z,59.93
2018-04-17T07:28:40.260Z,59.49
2018-04-17T07:31:08.602Z,59.42
2018-04-17T07:33:36.973Z,59.08
2018-04-17T07:36:05.703Z,59.49
2018-04-17T07:38:34.011Z,59.50
2018-04-17T07:41:02.298Z,59.13
2018-04-17T07:43:30.578Z,58.80
2018-04-17T07:45:58.889Z,58.50
2018-04-17T07:48:39.253Z,58.30
2018-04-17T07:51:07.537Z,58.09
2018-04-17T07:53:35.832Z,57.05
2018-04-17T07:56:04.153Z,57.01
2018-04-17T07:58:34.381Z,57.02
2018-04-17T08:01:02.690Z,56.82
2018-04-17T08:03:30.969Z,56.47
2018-04-17T08:05:59.306Z,55.74
2018-04-17T08:08:28.311Z,55.20
2018-04-17T08:10:57.596Z,55.61
2018-04-17T08:13:25.913Z,55.69
2018-04-17T08:15:54.247Z,55.63
2018-04-17T08:18:22.526Z,56.09
2018-04-17T08:20:50.841Z,56.21
2018-04-17T08:23:19.194Z,56.27
2018-04-17T08:25:48.275Z,56.13
2018-04-17T08:28:16.613Z,55.75
2018-04-17T08:30:44.927Z,54.94
2018-04-17T08:33:13.211Z,54.50
2018-04-17T08:35:41.607Z,53.47
2018-04-17T08:38:09.862Z,52.99
2018-04-17T08:40:38.159Z,52.47
2018-04-17T08:43:06.449Z,52.55
2018-04-17T08:45:34.750Z,51.86
2018-04-17T08:48:03.709Z,51.37
2018-04-17T08:50:32.025Z,51.35
2018-04-17T08:53:00.356Z,50.71
2018-04-17T08:55:28.677Z,50.63
2018-04-17T08:57:56.964Z,50.16
2018-04-17T09:00:25.245Z,49.71
2018-04-17T09:02:53.541Z,48.29
2018-04-17T09:05:21.830Z,48.03
2018-04-17T09:07:50.136Z,45.66
2018-04-17T09:10:18.491Z,45.87
2018-04-17T09:12:46.839Z,46.54
2018-04-17T09:15:15.150Z,45.47
2018-04-17T09:17:43.449Z,44.49
2018-04-17T09:20:11.729Z,46.07
2018-04-17T09:22:40.052Z,45.45
2018-04-17T09:25:09.161Z,45.79
2018-04-17T09:27:37.623Z,45.74
2018-04-17T09:30:05.835Z,42.73
2018-04-17T09:32:34.138Z,42.57
2018-04-17T09:35:02.405Z,42.76
2018-04-17T09:37:30.765Z,42.76
2018-04-17T09:39:59.096Z,43.15
2018-04-17T09:42:27.403Z,42.78
2018-04-17T09:44:55.725Z,41.89
2018-04-17T09:47:24.083Z,41.38
2018-04-17T09:49:52.376Z,41.98
2018-04-17T09:52:20.745Z,41.61
2018-04-17T09:54:49.101Z,41.74
2018-04-17T09:57:17.406Z,41.42
2018-04-17T09:59:45.698Z,42.10
2018-04-17T10:02:14.066Z,42.32
2018-04-17T10:04:42.440Z,42.39
2018-04-17T10:07:10.795Z,42.19
2018-04-17T10:09:39.130Z,41.45
2018-04-17T10:12:07.533Z,42.05
2018-04-17T10:14:36.454Z,40.70
2018-04-17T10:17:05.752Z,41.01
2018-04-17T10:19:34.130Z,41.19
2018-04-17T10:22:02.411Z,40.51
2018-04-17T10:24:31.013Z,40.78
2018-04-17T10:26:59.386Z,40.74
2018-04-17T10:29:27.664Z,41.01
2018-04-17T10:31:56.500Z,40.60
2018-04-17T10:34:24.808Z,40.50
2018-04-17T10:36:53.100Z,40.52
2018-04-17T10:39:21.473Z,40.59
2018-04-17T10:41:49.767Z,40.48
2018-04-17T10:44:18.115Z,40.24
2018-04-17T10:46:46.608Z,39.73
2018-04-17T10:49:14.977Z,39.73
2018-04-17T10:51:43.231Z,38.49
2018-04-17T10:54:11.542Z,38.80
2018-04-17T10:56:39.817Z,38.21
2018-04-17T10:59:08.147Z,38.30
2018-04-17T11:01:36.405Z,38.15
2018-04-17T11:04:04.853Z,37.99
2018-04-17T11:06:33.121Z,38.70
2018-04-17T11:09:01.453Z,39.27
2018-04-17T11:11:29.813Z,39.49
2018-04-17T11:13:58.067Z,39.69
2018-04-17T11:16:26.357Z,39.77
2018-04-17T11:18:54.706Z,39.82
2018-04-17T11:21:23.002Z,40.08
2018-04-17T11:23:51.357Z,39.51
2018-04-17T11:26:19.635Z,39.03
2018-04-17T11:28:47.922Z,38.73
2018-04-17T11:31:16.233Z,37.89
2018-04-17T11:33:44.500Z,38.13
2018-04-17T11:36:12.903Z,37.66
2018-04-17T11:38:41.166Z,37.23
2018-04-17T11:41:09.470Z,37.03
2018-04-17T11:43:37.857Z,36.44
2018-04-17T11:46:06.161Z,36.72
2018-04-17T11:48:34.440Z,36.14
2018-04-17T11:51:02.751Z,35.35
2018-04-17T11:53:31.011Z,36.44
2018-04-17T11:55:59.309Z,36.56
2018-04-17T11:58:27.586Z,36.53
2018-04-17T12:00:55.867Z,36.98
2018-04-17T12:03:24.168Z,36.89
2018-04-17T12:05:52.624Z,36.02
2018-04-17T12:08:20.908Z,36.09
2018-04-17T12:10:49.188Z,33.00
2018-04-17T12:13:17.558Z,31.14
2018-04-17T12:15:45.859Z,31.57
2018-04-17T12:18:14.156Z,30.33
2018-04-17T12:20:42.418Z,29.93
2018-04-17T12:23:10.736Z,30.30
2018-04-17T12:25:39.150Z,30.06
2018-04-17T12:28:07.470Z,29.73
2018-04-17T12:30:35.761Z,30.02
2018-04-17T12:33:04.045Z,30.08
2018-04-17T12:35:32.347Z,29.48
2018-04-17T12:38:00.705Z,28.79
2018-04-17T12:40:29.370Z,29.36
2018-04-17T12:42:57.673Z,28.93
2018-04-17T12:45:26.622Z,28.18
2018-04-17T12:47:55.171Z,27.72
2018-04-17T12:50:23.482Z,28.10
2018-04-17T12:52:51.826Z,28.54
2018-04-17T12:55:20.087Z,27.78
2018-04-17T12:57:48.395Z,27.70
2018-04-17T13:00:18.542Z,27.47
2018-04-17T13:02:49.987Z,27.54
2018-04-17T13:05:18.305Z,27.08
2018-04-17T13:07:46.627Z,26.92
2018-04-17T13:10:14.886Z,27.03
2018-04-17T13:12:43.152Z,26.70
2018-04-17T13:15:11.466Z,26.46
2018-04-17T13:17:39.749Z,26.60
2018-04-17T13:20:08.037Z,26.23
2018-04-17T13:22:36.295Z,26.43
2018-04-17T13:25:05.614Z,26.82
2018-04-17T13:27:33.903Z,26.78
2018-04-17T13:30:02.248Z,25.61
2018-04-17T13:32:30.532Z,25.35
2018-04-17T13:34:58.857Z,25.65
2018-04-17T13:37:27.130Z,26.17
2018-04-17T13:39:58.076Z,25.81
2018-04-17T13:42:26.364Z,25.54
2018-04-17T13:44:54.654Z,25.49
2018-04-17T13:47:22.941Z,25.36
2018-04-17T13:49:51.359Z,24.62
2018-04-17T13:52:19.726Z,24.34
2018-04-17T13:54:48.499Z,24.63
2018-04-17T13:57:16.821Z,24.84
2018-04-17T13:59:46.443Z,24.63
2018-04-17T14:02:14.728Z,24.19
2018-04-17T14:04:43.018Z,24.15
2018-04-17T14:07:11.356Z,24.05
2018-04-17T14:09:40.048Z,23.97
2018-04-17T14:12:08.364Z,24.43
2018-04-17T14:14:36.630Z,24.30
2018-04-17T14:17:05.046Z,24.24
2018-04-17T14:19:33.347Z,23.90
2018-04-17T14:22:01.695Z,22.96
2018-04-17T14:24:29.926Z,22.73
2018-04-17T14:26:58.231Z,22.65
2018-04-17T14:29:27.371Z,22.55
2018-04-17T14:31:55.646Z,22.33
2018-04-17T14:34:23.947Z,21.95
2018-04-17T14:36:53.434Z,22.10
2018-04-17T14:39:21.727Z,21.95
2018-04-17T14:41:50.040Z,21.99
2018-04-17T14:44:18.301Z,21.97
2018-04-17T14:46:46.610Z,22.00
2018-04-17T14:49:14.874Z,21.83
2018-04-17T14:51:43.211Z,21.35
2018-04-17T14:54:11.474Z,21.64
2018-04-17T14:56:39.810Z,21.32
2018-04-17T14:59:08.125Z,22.01
2018-04-17T15:01:36.429Z,22.91
2018-04-17T15:04:04.730Z,22.08
2018-04-17T15:06:33.042Z,21.72
2018-04-17T15:09:01.331Z,22.30
2018-04-17T15:11:29.663Z,22.10
2018-04-17T15:13:58.011Z,21.46
2018-04-17T15:16:26.324Z,21.71
2018-04-17T15:18:54.657Z,21.84
2018-04-17T15:21:22.973Z,22.15
2018-04-17T15:23:51.857Z,22.45
2018-04-17T15:26:20.227Z,22.33
2018-04-17T15:28:48.520Z,21.72
2018-04-17T15:31:16.839Z,21.00
2018-04-17T15:33:45.138Z,20.49
2018-04-17T15:36:13.516Z,20.74
2018-04-17T15:38:41.810Z,19.79
2018-04-17T15:41:10.194Z,19.55
2018-04-17T15:43:38.699Z,19.39
2018-04-17T15:46:06.994Z,20.11
